Time,TemperatureF,DewpointF,PressureIn,WindDirection,WindDirectionDegrees,WindSpeedMPH,WindSpeedGustMPH,Humidity,HourlyPrecipIn,Conditions,Clouds,dailyrainin,SoftwareType,DateUTC
2013-02-23 00:04:00,50.0,43.7,30.17,West,271,2.0,5.0,79,0.00,,,0.00,Wunderground v.1.15,2013-02-23 08:04:00,
2013-02-23 00:10:00,50.1,43.5,30.17,West,277,1.0,2.0,78,0.00,,,0.00,Wunderground v.1.15,2013-02-23 08:10:00,
2013-02-23 00:16:00,50.2,43.6,30.18,SW,226,1.0,4.0,78,0.00,,,0.00,Wunderground v.1.15,2013-02-23 08:16:00,
2013-02-23 00:21:00,50.3,43.7,30.17,West,260,1.0,4.0,78,0.00,,,0.00,Wunderground v.1.15,2013-02-23 08:21:00,
2013-02-23 00:27:00,50.3,43.7,30.17,West,266,1.0,4.0,78,0.00,,,0.00,Wunderground v.1.15,2013-02-23 08:27:00,
2013-02-23 00:32:00,50.4,43.8,30.16,West,277,1.0,1.0,78,0.00,,,0.00,Wunderground v.1.15,2013-02-23 08:32:00,
2013-02-23 00:37:00,50.4,43.8,30.16,SW,236,0.0,3.0,78,0.00,,,0.00,Wunderground v.1.15,2013-02-23 08:37:00,
2013-02-23 00:43:00,50.5,43.9,30.16,SSE,166,1.0,2.0,78,0.00,,,0.00,Wunderground v.1.15,2013-02-23 08:43:00,
2013-02-23 00:48:00,50.6,44.0,30.16,West,267,1.0,2.0,78,0.00,,,0.00,Wunderground v.1.15,2013-02-23 08:48:00,
2013-02-23 00:53:00,50.6,44.0,30.15,West,259,1.0,1.0,78,0.00,,,0.00,Wunderground v.1.15,2013-02-23 08:53:00,
2013-02-23 00:59:00,50.7,44.1,30.15,SW,226,1.0,1.0,78,0.00,,,0.00,Wunderground v.1.15,2013-02-23 08:59:00,
2013-02-23 01:05:00,50.8,44.2,30.15,WNW,294,1.0,7.0,78,0.00,,,0.00,Wunderground v.1.15,2013-02-23 09:05:00,
2013-02-23 01:10:00,50.9,43.9,30.14,West,274,1.0,7.0,77,0.00,,,0.00,Wunderground v.1.15,2013-02-23 09:10:00,
2013-02-23 01:15:00,50.9,43.9,30.15,SW,236,1.0,7.0,77,0.00,,,0.00,Wunderground v.1.15,2013-02-23 09:15:00,
2013-02-23 01:21:00,50.9,43.9,30.15,WSW,255,1.0,7.0,77,0.00,,,0.00,Wunderground v.1.15,2013-02-23 09:21:00,
2013-02-23 01:26:00,50.7,43.8,30.15,West,276,1.0,7.0,77,0.00,,,0.00,Wunderground v.1.15,2013-02-23 09:26:00,
2013-02-23 01:31:00,50.5,43.6,30.15,West,274,1.0,7.0,77,0.00,,,0.00,Wunderground v.1.15,2013-02-23 09:31:00,
2013-02-23 01:37:00,50.4,43.5,30.14,SW,231,0.0,7.0,77,0.00,,,0.00,Wunderground v.1.15,2013-02-23 09:37:00,
2013-02-23 01:42:00,50.3,43.4,30.14,SW,236,1.0,7.0,77,0.00,,,0.00,Wunderground v.1.15,2013-02-23 09:42:00,
2013-02-23 01:48:00,50.3,43.4,30.14,SW,224,1.0,7.0,77,0.00,,,0.00,Wunderground v.1.15,2013-02-23 09:48:00,
2013-02-23 01:53:00,50.2,43.3,30.15,SW,223,0.0,7.0,77,0.00,,,0.00,Wunderground v.1.15,2013-02-23 09:53:00,
2013-02-23 01:58:00,49.9,43.0,30.14,SW,225,0.0,7.0,77,0.00,,,0.00,Wunderground v.1.15,2013-02-23 09:58:00,
2013-02-23 02:05:00,49.5,42.6,30.14,SSE,160,0.0,7.0,77,0.00,,,0.00,Wunderground v.1.15,2013-02-23 10:05:00,
2013-02-23 02:10:00,49.2,42.6,30.13,SSE,159,1.0,1.0,78,0.00,,,0.00,Wunderground v.1.15,2013-02-23 10:10:00,
2013-02-23 02:16:00,48.9,42.3,30.13,SSE,160,0.0,1.0,78,0.00,,,0.00,Wunderground v.1.15,2013-02-23 10:16:00,
2013-02-23 02:22:00,48.5,42.6,30.13,SSE,153,0.0,1.0,80,0.00,,,0.00,Wunderground v.1.15,2013-02-23 10:22:00,
2013-02-23 02:27:00,48.2,42.3,30.14,South,188,0.0,1.0,80,0.00,,,0.00,Wunderground v.1.15,2013-02-23 10:27:00,
2013-02-23 02:33:00,48.0,42.4,30.14,SW,222,1.0,1.0,81,0.00,,,0.00,Wunderground v.1.15,2013-02-23 10:33:00,
2013-02-23 02:38:00,47.7,42.2,30.14,WSW,243,0.0,1.0,81,0.00,,,0.00,Wunderground v.1.15,2013-02-23 10:38:00,
2013-02-23 02:43:00,47.4,41.9,30.14,WNW,284,0.0,0.0,81,0.00,,,0.00,Wunderground v.1.15,2013-02-23 10:43:00,
2013-02-23 02:49:00,46.9,41.7,30.15,WNW,285,0.0,0.0,82,0.00,,,0.00,Wunderground v.1.15,2013-02-23 10:49:00,
2013-02-23 02:54:00,46.7,41.5,30.15,SSW,200,0.0,0.0,82,0.00,,,0.00,Wunderground v.1.15,2013-02-23 10:54:00,
2013-02-23 02:59:00,46.5,41.6,30.15,SW,215,0.0,0.0,83,0.00,,,0.00,Wunderground v.1.15,2013-02-23 10:59:00,
2013-02-23 03:04:00,46.4,41.5,30.15,SW,214,0.0,7.0,83,0.00,,,0.00,Wunderground v.1.15,2013-02-23 11:04:00,
2013-02-23 03:10:00,46.3,41.7,30.15,South,170,0.0,7.0,84,0.00,,,0.00,Wunderground v.1.15,2013-02-23 11:10:00,
2013-02-23 03:16:00,46.5,42.2,30.15,WSW,252,0.0,7.0,85,0.00,,,0.00,Wunderground v.1.15,2013-02-23 11:16:00,
2013-02-23 03:21:00,47.3,42.7,30.15,WNW,299,2.0,7.0,84,0.00,,,0.00,Wunderground v.1.15,2013-02-23 11:21:00,
2013-02-23 03:26:00,47.9,43.0,30.14,SSE,162,3.0,7.0,83,0.00,,,0.00,Wunderground v.1.15,2013-02-23 11:26:00,
2013-02-23 03:32:00,48.4,43.5,30.14,SW,219,2.0,7.0,83,0.00,,,0.00,Wunderground v.1.15,2013-02-23 11:32:00,
2013-02-23 03:37:00,48.6,43.4,30.14,South,191,2.0,7.0,82,0.00,,,0.00,Wunderground v.1.15,2013-02-23 11:37:00,
2013-02-23 03:43:00,48.9,43.6,30.14,WSW,249,3.0,7.0,82,0.00,,,0.00,Wunderground v.1.15,2013-02-23 11:43:00,
2013-02-23 03:49:00,49.0,43.7,30.13,West,263,3.0,7.0,82,0.00,,,0.00,Wunderground v.1.15,2013-02-23 11:49:00,
2013-02-23 03:54:00,49.1,43.5,30.12,North,354,4.0,7.0,81,0.00,,,0.00,Wunderground v.1.15,2013-02-23 11:54:00,
2013-02-23 03:59:00,49.0,43.4,30.12,SW,219,4.0,4.0,81,0.00,,,0.00,Wunderground v.1.15,2013-02-23 11:59:00,
2013-02-23 04:04:00,48.9,43.3,30.13,North,349,3.0,7.0,81,0.00,,,0.00,Wunderground v.1.15,2013-02-23 12:04:00,
2013-02-23 04:10:00,48.7,43.1,30.12,West,267,2.0,4.0,81,0.00,,,0.00,Wunderground v.1.15,2013-02-23 12:10:00,
2013-02-23 04:16:00,48.5,43.3,30.12,SW,218,3.0,4.0,82,0.00,,,0.00,Wunderground v.1.15,2013-02-23 12:16:00,
2013-02-23 04:21:00,48.4,43.2,30.11,SW,235,3.0,7.0,82,0.00,,,0.00,Wunderground v.1.15,2013-02-23 12:21:00,
2013-02-23 04:27:00,48.3,43.4,30.13,SW,229,3.0,7.0,83,0.00,,,0.00,Wunderground v.1.15,2013-02-23 12:27:00,
2013-02-23 04:32:00,48.2,43.3,30.13,West,271,1.0,2.0,83,0.00,,,0.00,Wunderground v.1.15,2013-02-23 12:32:00,
2013-02-23 04:37:00,48.3,43.7,30.13,West,263,1.0,2.0,84,0.00,,,0.00,Wunderground v.1.15,2013-02-23 12:37:00,
2013-02-23 04:42:00,48.4,44.1,30.13,West,273,1.0,2.0,85,0.00,,,0.00,Wunderground v.1.15,2013-02-23 12:42:00,
2013-02-23 04:48:00,48.6,44.3,30.13,SW,214,2.0,3.0,85,0.00,,,0.00,Wunderground v.1.15,2013-02-23 12:48:00,
2013-02-23 04:53:00,48.7,44.4,30.12,WSW,256,2.0,2.0,85,0.00,,,0.00,Wunderground v.1.15,2013-02-23 12:53:00,
2013-02-23 04:58:00,48.7,44.4,30.12,WSW,239,1.0,5.0,85,0.00,,,0.00,Wunderground v.1.15,2013-02-23 12:58:00,
2013-02-23 05:04:00,48.5,44.2,30.11,SW,232,1.0,12.0,85,0.00,,,0.00,Wunderground v.1.15,2013-02-23 13:04:00,
2013-02-23 05:10:00,48.3,44.3,30.12,West,274,1.0,12.0,86,0.00,,,0.00,Wunderground v.1.15,2013-02-23 13:10:00,
2013-02-23 05:16:00,48.1,44.1,30.13,West,262,1.0,12.0,86,0.00,,,0.00,Wunderground v.1.15,2013-02-23 13:16:00,
2013-02-23 05:22:00,47.9,44.2,30.13,West,266,0.0,12.0,87,0.00,,,0.00,Wunderground v.1.15,2013-02-23 13:22:00,
2013-02-23 05:27:00,47.7,44.0,30.13,WSW,252,1.0,12.0,87,0.00,,,0.00,Wunderground v.1.15,2013-02-23 13:27:00,
2013-02-23 05:32:00,47.6,43.9,30.13,WSW,238,1.0,12.0,87,0.00,,,0.00,Wunderground v.1.15,2013-02-23 13:32:00,
2013-02-23 05:38:00,47.5,44.1,30.13,SW,226,1.0,12.0,88,0.00,,,0.00,Wunderground v.1.15,2013-02-23 13:38:00,
2013-02-23 05:43:00,47.4,44.0,30.13,WSW,256,1.0,12.0,88,0.00,,,0.00,Wunderground v.1.15,2013-02-23 13:43:00,
2013-02-23 05:48:00,47.3,43.9,30.13,SSW,211,1.0,12.0,88,0.00,,,0.00,Wunderground v.1.15,2013-02-23 13:48:00,
2013-02-23 05:54:00,47.2,43.8,30.13,West,261,1.0,12.0,88,0.00,,,0.00,Wunderground v.1.15,2013-02-23 13:54:00,
2013-02-23 05:59:00,47.1,44.0,30.13,WSW,256,1.0,12.0,89,0.00,,,0.00,Wunderground v.1.15,2013-02-23 13:59:00,
2013-02-23 06:04:00,47.2,44.1,30.13,WSW,255,0.0,12.0,89,0.00,,,0.00,Wunderground v.1.15,2013-02-23 14:04:00,
2013-02-23 06:10:00,47.2,44.1,30.13,West,267,1.0,2.0,89,0.00,,,0.00,Wunderground v.1.15,2013-02-23 14:10:00,
2013-02-23 06:16:00,47.0,43.9,30.13,West,278,1.0,2.0,89,0.00,,,0.00,Wunderground v.1.15,2013-02-23 14:16:00,
2013-02-23 06:21:00,47.0,43.9,30.13,WNW,288,1.0,1.0,89,0.00,,,0.00,Wunderground v.1.15,2013-02-23 14:21:00,
2013-02-23 06:26:00,46.9,43.8,30.13,West,269,1.0,1.0,89,0.00,,,0.00,Wunderground v.1.15,2013-02-23 14:26:00,
2013-02-23 06:31:00,46.7,43.6,30.14,West,261,0.0,0.0,89,0.00,,,0.00,Wunderground v.1.15,2013-02-23 14:31:00,
2013-02-23 06:37:00,46.5,43.4,30.13,WSW,249,1.0,2.0,89,0.00,,,0.00,Wunderground v.1.15,2013-02-23 14:37:00,
2013-02-23 06:42:00,46.5,43.4,30.13,West,262,1.0,2.0,89,0.00,,,0.00,Wunderground v.1.15,2013-02-23 14:42:00,
2013-02-23 06:47:00,46.4,43.3,30.14,SSE,162,1.0,2.0,89,0.00,,,0.00,Wunderground v.1.15,2013-02-23 14:47:00,
2013-02-23 06:53:00,46.6,43.8,30.14,West,276,1.0,2.0,90,0.00,,,0.00,Wunderground v.1.15,2013-02-23 14:53:00,
2013-02-23 06:58:00,46.9,44.1,30.15,WNW,299,1.0,2.0,90,0.00,,,0.00,Wunderground v.1.15,2013-02-23 14:58:00,
2013-02-23 07:03:00,47.2,44.1,30.15,WSW,252,1.0,8.0,89,0.00,,,0.00,Wunderground v.1.15,2013-02-23 15:03:00,
2013-02-23 07:09:00,47.5,44.4,30.15,WSW,239,2.0,8.0,89,0.00,,,0.00,Wunderground v.1.15,2013-02-23 15:09:00,
2013-02-23 07:14:00,47.6,44.2,30.15,West,259,2.0,8.0,88,0.00,,,0.00,Wunderground v.1.15,2013-02-23 15:14:00,
2013-02-23 07:19:00,47.7,44.3,30.15,SW,226,2.0,8.0,88,0.00,,,0.00,Wunderground v.1.15,2013-02-23 15:19:00,
2013-02-23 07:25:00,47.7,44.0,30.15,West,278,2.0,8.0,87,0.00,,,0.00,Wunderground v.1.15,2013-02-23 15:25:00,
2013-02-23 07:30:00,47.5,43.8,30.16,West,267,1.0,8.0,87,0.00,,,0.00,Wunderground v.1.15,2013-02-23 15:30:00,
2013-02-23 07:36:00,47.3,43.6,30.16,WNW,302,1.0,8.0,87,0.00,,,0.00,Wunderground v.1.15,2013-02-23 15:36:00,
2013-02-23 07:41:00,47.1,43.4,30.16,WNW,285,1.0,8.0,87,0.00,,,0.00,Wunderground v.1.15,2013-02-23 15:41:00,
2013-02-23 07:46:00,47.1,43.4,30.17,NNW,341,1.0,8.0,87,0.00,,,0.00,Wunderground v.1.15,2013-02-23 15:46:00,
2013-02-23 07:51:00,47.3,43.3,30.17,West,275,1.0,8.0,86,0.00,,,0.00,Wunderground v.1.15,2013-02-23 15:51:00,
2013-02-23 07:57:00,47.7,43.1,30.17,WSW,255,1.0,8.0,84,0.00,,,0.00,Wunderground v.1.15,2013-02-23 15:57:00,
2013-02-23 08:02:00,48.1,43.2,30.17,WNW,294,1.0,8.0,83,0.00,,,0.00,Wunderground v.1.15,2013-02-23 16:02:00,
2013-02-23 08:08:00,48.5,42.9,30.17,WNW,292,1.0,8.0,81,0.00,,,0.00,Wunderground v.1.15,2013-02-23 16:08:00,
2013-02-23 08:13:00,49.0,43.1,30.18,WSW,252,2.0,5.0,80,0.00,,,0.00,Wunderground v.1.15,2013-02-23 16:13:00,
2013-02-23 08:19:00,49.5,42.9,30.18,NW,308,3.0,3.0,78,0.00,,,0.00,Wunderground v.1.15,2013-02-23 16:19:00,
2013-02-23 08:24:00,50.1,43.2,30.19,West,274,3.0,7.0,77,0.00,,,0.00,Wunderground v.1.15,2013-02-23 16:24:00,
2013-02-23 08:30:00,50.7,43.1,30.19,WNW,297,3.0,10.0,75,0.00,,,0.00,Wunderground v.1.15,2013-02-23 16:30:00,
2013-02-23 08:35:00,51.0,43.0,30.19,WNW,288,4.0,10.0,74,0.00,,,0.00,Wunderground v.1.15,2013-02-23 16:35:00,
2013-02-23 08:41:00,51.2,42.8,30.19,West,278,4.0,4.0,73,0.00,,,0.00,Wunderground v.1.15,2013-02-23 16:41:00,
2013-02-23 08:46:00,51.3,41.5,30.19,West,281,4.0,11.0,69,0.00,,,0.00,Wunderground v.1.15,2013-02-23 16:46:00,
2013-02-23 08:52:00,51.5,40.9,30.19,WNW,295,5.0,5.0,67,0.00,,,0.00,Wunderground v.1.15,2013-02-23 16:52:00,
2013-02-23 08:58:00,51.7,39.5,30.19,WNW,298,4.0,5.0,63,0.00,,,0.00,Wunderground v.1.15,2013-02-23 16:58:00,
2013-02-23 09:04:00,52.0,39.0,30.19,NNW,342,4.0,7.0,61,0.00,,,0.00,Wunderground v.1.15,2013-02-23 17:04:00,
2013-02-23 09:10:00,52.1,38.6,30.19,SW,235,4.0,4.0,60,0.00,,,0.00,Wunderground v.1.15,2013-02-23 17:10:00,
2013-02-23 09:16:00,52.1,37.3,30.19,WNW,290,4.0,10.0,57,0.00,,,0.00,Wunderground v.1.15,2013-02-23 17:16:00,
2013-02-23 09:22:00,51.9,36.7,30.19,WNW,298,5.0,9.0,56,0.00,,,0.00,Wunderground v.1.15,2013-02-23 17:22:00,
2013-02-23 09:28:00,51.9,36.2,30.19,NW,312,5.0,9.0,55,0.00,,,0.00,Wunderground v.1.15,2013-02-23 17:28:00,
2013-02-23 09:33:00,52.1,35.9,30.19,NW,314,5.0,7.0,54,0.00,,,0.00,Wunderground v.1.15,2013-02-23 17:33:00,
2013-02-23 09:39:00,52.5,36.8,30.19,NNW,330,4.0,7.0,55,0.00,,,0.00,Wunderground v.1.15,2013-02-23 17:39:00,
2013-02-23 09:44:00,52.4,35.8,30.19,NNW,343,5.0,10.0,53,0.00,,,0.00,Wunderground v.1.15,2013-02-23 17:44:00,
2013-02-23 09:50:00,52.5,35.8,30.19,NNW,332,6.0,6.0,53,0.00,,,0.00,Wunderground v.1.15,2013-02-23 17:50:00,
2013-02-23 09:55:00,52.8,35.2,30.19,NNW,332,6.0,7.0,51,0.00,,,0.00,Wunderground v.1.15,2013-02-23 17:55:00,
2013-02-23 10:01:00,53.0,35.8,30.18,WNW,294,5.0,6.0,52,0.00,,,0.00,Wunderground v.1.15,2013-02-23 18:01:00,
2013-02-23 10:06:00,53.4,35.7,30.19,WNW,286,6.0,7.0,51,0.00,,,0.00,Wunderground v.1.15,2013-02-23 18:06:00,
2013-02-23 10:12:00,53.7,34.5,30.18,WNW,290,6.0,7.0,48,0.00,,,0.00,Wunderground v.1.15,2013-02-23 18:12:00,
2013-02-23 10:17:00,53.7,34.5,30.18,WNW,300,7.0,8.0,48,0.00,,,0.00,Wunderground v.1.15,2013-02-23 18:17:00,
2013-02-23 10:22:00,53.6,33.8,30.18,NE,34,7.0,8.0,47,0.00,,,0.00,Wunderground v.1.15,2013-02-23 18:22:00,
2013-02-23 10:28:00,53.8,34.0,30.18,NW,311,7.0,10.0,47,0.00,,,0.00,Wunderground v.1.15,2013-02-23 18:28:00,
2013-02-23 10:33:00,54.0,34.7,30.18,NW,324,7.0,12.0,48,0.00,,,0.00,Wunderground v.1.15,2013-02-23 18:33:00,
2013-02-23 10:38:00,54.1,34.3,30.18,NNW,342,6.0,12.0,47,0.00,,,0.00,Wunderground v.1.15,2013-02-23 18:38:00,
2013-02-23 10:44:00,54.0,34.7,30.18,NW,326,6.0,8.0,48,0.00,,,0.00,Wunderground v.1.15,2013-02-23 18:44:00,
2013-02-23 10:49:00,54.1,34.8,30.18,West,269,7.0,8.0,48,0.00,,,0.00,Wunderground v.1.15,2013-02-23 18:49:00,
2013-02-23 10:54:00,54.2,34.4,30.18,West,271,6.0,11.0,47,0.00,,,0.00,Wunderground v.1.15,2013-02-23 18:54:00,
2013-02-23 11:01:00,54.3,34.5,30.18,WNW,290,6.0,6.0,47,0.00,,,0.00,Wunderground v.1.15,2013-02-23 19:01:00,
2013-02-23 11:06:00,54.6,34.8,30.18,WNW,298,6.0,16.0,47,0.00,,,0.00,Wunderground v.1.15,2013-02-23 19:06:00,
2013-02-23 11:12:00,54.8,34.4,30.18,NW,311,5.0,16.0,46,0.00,,,0.00,Wunderground v.1.15,2013-02-23 19:12:00,
2013-02-23 11:18:00,54.9,35.0,30.17,NW,321,5.0,16.0,47,0.00,,,0.00,Wunderground v.1.15,2013-02-23 19:18:00,
2013-02-23 11:23:00,55.1,35.2,30.18,West,271,5.0,16.0,47,0.00,,,0.00,Wunderground v.1.15,2013-02-23 19:23:00,
2013-02-23 11:28:00,55.4,34.9,30.18,NW,305,5.0,16.0,46,0.00,,,0.00,Wunderground v.1.15,2013-02-23 19:28:00,
2013-02-23 11:34:00,55.5,35.0,30.17,North,351,6.0,16.0,46,0.00,,,0.00,Wunderground v.1.15,2013-02-23 19:34:00,
2013-02-23 11:39:00,55.6,34.6,30.17,NW,322,8.0,16.0,45,0.00,,,0.00,Wunderground v.1.15,2013-02-23 19:39:00,
2013-02-23 11:44:00,55.6,35.1,30.17,WNW,297,8.0,16.0,46,0.00,,,0.00,Wunderground v.1.15,2013-02-23 19:44:00,
2013-02-23 11:50:00,55.9,34.8,30.17,NW,314,7.0,7.0,45,0.00,,,0.00,Wunderground v.1.15,2013-02-23 19:50:00,
2013-02-23 11:56:00,55.9,34.8,30.16,NNW,339,6.0,16.0,45,0.00,,,0.00,Wunderground v.1.15,2013-02-23 19:56:00,
2013-02-23 12:01:00,56.1,35.0,30.17,NW,316,6.0,16.0,45,0.00,,,0.00,Wunderground v.1.15,2013-02-23 20:01:00,
2013-02-23 12:07:00,56.4,34.7,30.16,NW,308,6.0,16.0,44,0.00,,,0.00,Wunderground v.1.15,2013-02-23 20:07:00,
2013-02-23 12:12:00,56.4,34.7,30.16,North,353,6.0,9.0,44,0.00,,,0.00,Wunderground v.1.15,2013-02-23 20:12:00,
2013-02-23 12:18:00,56.8,35.1,30.16,NW,321,5.0,9.0,44,0.00,,,0.00,Wunderground v.1.15,2013-02-23 20:18:00,
2013-02-23 12:23:00,56.8,33.9,30.15,NW,311,6.0,8.0,42,0.00,,,0.00,Wunderground v.1.15,2013-02-23 20:23:00,
2013-02-23 12:28:00,57.1,33.6,30.15,NW,305,6.0,8.0,41,0.00,,,0.00,Wunderground v.1.15,2013-02-23 20:28:00,
2013-02-23 12:33:00,57.2,32.4,30.15,WNW,302,6.0,13.0,39,0.00,,,0.00,Wunderground v.1.15,2013-02-23 20:33:00,
2013-02-23 12:39:00,57.4,32.6,30.15,NW,310,7.0,13.0,39,0.00,,,0.00,Wunderground v.1.15,2013-02-23 20:39:00,
2013-02-23 12:44:00,57.3,31.2,30.14,WNW,298,6.0,8.0,37,0.00,,,0.00,Wunderground v.1.15,2013-02-23 20:44:00,
2013-02-23 12:49:00,57.4,32.0,30.14,West,269,6.0,6.0,38,0.00,,,0.00,Wunderground v.1.15,2013-02-23 20:49:00,
2013-02-23 12:54:00,57.4,32.6,30.14,NW,324,7.0,7.0,39,0.00,,,0.00,Wunderground v.1.15,2013-02-23 20:54:00,
2013-02-23 12:59:00,57.5,32.7,30.14,NW,322,7.0,7.0,39,0.00,,,0.00,Wunderground v.1.15,2013-02-23 20:59:00,
2013-02-23 13:04:00,57.4,32.6,30.14,NNW,346,6.0,18.0,39,0.00,,,0.00,Wunderground v.1.15,2013-02-23 21:04:00,
2013-02-23 13:10:00,57.6,33.4,30.14,North,349,7.0,9.0,40,0.00,,,0.00,Wunderground v.1.15,2013-02-23 21:10:00,
2013-02-23 13:15:00,57.7,31.6,30.13,NNW,331,6.0,18.0,37,0.00,,,0.00,Wunderground v.1.15,2013-02-23 21:15:00,
2013-02-23 13:21:00,57.6,30.1,30.13,NNW,328,7.0,18.0,35,0.00,,,0.00,Wunderground v.1.15,2013-02-23 21:21:00,
2013-02-23 13:26:00,57.7,30.9,30.13,North,358,7.0,18.0,36,0.00,,,0.00,Wunderground v.1.15,2013-02-23 21:26:00,
2013-02-23 13:31:00,58.0,31.2,30.12,NNW,327,6.0,18.0,36,0.00,,,0.00,Wunderground v.1.15,2013-02-23 21:31:00,
2013-02-23 13:37:00,58.4,29.4,30.12,NW,319,5.0,18.0,33,0.00,,,0.00,Wunderground v.1.15,2013-02-23 21:37:00,
2013-02-23 13:42:00,57.8,28.9,30.12,NE,52,6.0,18.0,33,0.00,,,0.00,Wunderground v.1.15,2013-02-23 21:42:00,
2013-02-23 13:48:00,57.8,29.6,30.12,NW,314,7.0,18.0,34,0.00,,,0.00,Wunderground v.1.15,2013-02-23 21:48:00,
2013-02-23 13:53:00,57.6,30.1,30.12,NW,316,7.0,18.0,35,0.00,,,0.00,Wunderground v.1.15,2013-02-23 21:53:00,
2013-02-23 13:58:00,57.5,30.0,30.12,NNE,25,7.0,18.0,35,0.00,,,0.00,Wunderground v.1.15,2013-02-23 21:58:00,
2013-02-23 14:04:00,58.0,31.2,30.12,NW,322,5.0,18.0,36,0.00,,,0.00,Wunderground v.1.15,2013-02-23 22:04:00,
2013-02-23 14:10:00,58.4,30.1,30.11,NW,316,5.0,9.0,34,0.00,,,0.00,Wunderground v.1.15,2013-02-23 22:10:00,
2013-02-23 14:16:00,58.8,28.2,30.11,West,274,6.0,9.0,31,0.00,,,0.00,Wunderground v.1.15,2013-02-23 22:16:00,
2013-02-23 14:21:00,58.9,26.7,30.11,NW,324,6.0,8.0,29,0.00,,,0.00,Wunderground v.1.15,2013-02-23 22:21:00,
2013-02-23 14:26:00,58.9,24.9,30.11,NW,311,6.0,10.0,27,0.00,,,0.00,Wunderground v.1.15,2013-02-23 22:26:00,
2013-02-23 14:31:00,58.8,26.6,30.11,NNW,339,7.0,8.0,29,0.00,,,0.00,Wunderground v.1.15,2013-02-23 22:31:00,
2013-02-23 14:37:00,58.8,25.7,30.11,WNW,298,6.0,8.0,28,0.00,,,0.00,Wunderground v.1.15,2013-02-23 22:37:00,
2013-02-23 14:42:00,58.8,25.7,30.11,North,8,7.0,13.0,28,0.00,,,0.00,Wunderground v.1.15,2013-02-23 22:42:00,
2013-02-23 14:47:00,58.5,25.5,30.11,NNE,16,9.0,13.0,28,0.00,,,0.00,Wunderground v.1.15,2013-02-23 22:47:00,
2013-02-23 14:53:00,58.6,26.4,30.11,NW,307,8.0,9.0,29,0.00,,,0.00,Wunderground v.1.15,2013-02-23 22:53:00,
2013-02-23 14:58:00,58.6,26.4,30.11,WNW,302,6.0,9.0,29,0.00,,,0.00,Wunderground v.1.15,2013-02-23 22:58:00,
2013-02-23 15:03:00,58.6,26.4,30.11,NNW,337,6.0,18.0,29,0.00,,,0.00,Wunderground v.1.15,2013-02-23 23:03:00,
2013-02-23 15:08:00,58.6,26.4,30.11,NW,322,7.0,18.0,29,0.00,,,0.00,Wunderground v.1.15,2013-02-23 23:08:00,
2013-02-23 15:14:00,58.8,26.6,30.10,NW,305,6.0,18.0,29,0.00,,,0.00,Wunderground v.1.15,2013-02-23 23:14:00,
2013-02-23 15:19:00,58.8,24.9,30.10,NNW,328,6.0,18.0,27,0.00,,,0.00,Wunderground v.1.15,2013-02-23 23:19:00,
2013-02-23 15:25:00,58.7,25.6,30.11,NNW,328,6.0,18.0,28,0.00,,,0.00,Wunderground v.1.15,2013-02-23 23:25:00,
2013-02-23 15:30:00,58.6,25.6,30.10,NW,311,6.0,18.0,28,0.00,,,0.00,Wunderground v.1.15,2013-02-23 23:30:00,
2013-02-23 15:35:00,58.7,25.6,30.11,NW,324,7.0,18.0,28,0.00,,,0.00,Wunderground v.1.15,2013-02-23 23:35:00,
2013-02-23 15:41:00,58.7,25.6,30.10,NNW,348,7.0,11.0,28,0.00,,,0.00,Wunderground v.1.15,2013-02-23 23:41:00,
2013-02-23 15:46:00,58.5,25.5,30.11,NW,319,7.0,18.0,28,0.00,,,0.00,Wunderground v.1.15,2013-02-23 23:46:00,
2013-02-23 15:51:00,58.3,25.3,30.10,NW,307,7.0,18.0,28,0.00,,,0.00,Wunderground v.1.15,2013-02-23 23:51:00,
2013-02-23 15:57:00,58.1,26.0,30.10,NNW,330,7.0,18.0,29,0.00,,,0.00,Wunderground v.1.15,2013-02-23 23:57:00,
2013-02-23 16:03:00,58.1,26.0,30.10,NNW,332,7.0,18.0,29,0.00,,,0.00,Wunderground v.1.15,2013-02-24 00:03:00,
2013-02-23 16:08:00,58.0,26.7,30.10,NNW,327,7.0,18.0,30,0.00,,,0.00,Wunderground v.1.15,2013-02-24 00:08:00,
2013-02-23 16:14:00,58.1,26.8,30.10,NNW,328,6.0,9.0,30,0.00,,,0.00,Wunderground v.1.15,2013-02-24 00:14:00,
2013-02-23 16:19:00,58.0,27.5,30.10,NNW,342,6.0,6.0,31,0.00,,,0.00,Wunderground v.1.15,2013-02-24 00:19:00,
2013-02-23 16:24:00,58.0,27.5,30.10,WNW,293,6.0,6.0,31,0.00,,,0.00,Wunderground v.1.15,2013-02-24 00:24:00,
2013-02-23 16:29:00,58.0,28.3,30.10,West,271,5.0,6.0,32,0.00,,,0.00,Wunderground v.1.15,2013-02-24 00:29:00,
2013-02-23 16:35:00,58.0,29.0,30.10,NNW,329,5.0,7.0,33,0.00,,,0.00,Wunderground v.1.15,2013-02-24 00:35:00,
2013-02-23 16:40:00,57.8,28.9,30.10,NW,319,6.0,6.0,33,0.00,,,0.00,Wunderground v.1.15,2013-02-24 00:40:00,
2013-02-23 16:45:00,57.8,29.6,30.09,NW,307,6.0,7.0,34,0.00,,,0.00,Wunderground v.1.15,2013-02-24 00:45:00,
2013-02-23 16:51:00,57.7,29.5,30.09,WNW,294,5.0,12.0,34,0.00,,,0.00,Wunderground v.1.15,2013-02-24 00:51:00,
2013-02-23 16:56:00,57.7,28.8,30.09,WNW,284,5.0,12.0,33,0.00,,,0.00,Wunderground v.1.15,2013-02-24 00:56:00,
2013-02-23 17:01:00,57.6,28.7,30.09,NW,315,5.0,18.0,33,0.00,,,0.00,Wunderground v.1.15,2013-02-24 01:01:00,
2013-02-23 17:07:00,57.4,28.5,30.09,WNW,290,4.0,18.0,33,0.00,,,0.00,Wunderground v.1.15,2013-02-24 01:07:00,
2013-02-23 17:12:00,57.3,28.4,30.09,NW,315,5.0,18.0,33,0.00,,,0.00,Wunderground v.1.15,2013-02-24 01:12:00,
2013-02-23 17:17:00,57.1,29.0,30.09,NW,312,5.0,18.0,34,0.00,,,0.00,Wunderground v.1.15,2013-02-24 01:17:00,
2013-02-23 17:23:00,56.9,28.1,30.09,West,271,4.0,18.0,33,0.00,,,0.00,Wunderground v.1.15,2013-02-24 01:23:00,
2013-02-23 17:28:00,56.6,28.5,30.10,NW,322,4.0,18.0,34,0.00,,,0.00,Wunderground v.1.15,2013-02-24 01:28:00,
2013-02-23 17:34:00,56.3,28.3,30.10,WNW,298,3.0,18.0,34,0.00,,,0.00,Wunderground v.1.15,2013-02-24 01:34:00,
2013-02-23 17:39:00,55.9,27.9,30.10,NW,319,4.0,18.0,34,0.00,,,0.00,Wunderground v.1.15,2013-02-24 01:39:00,
2013-02-23 17:44:00,55.6,28.4,30.10,NW,308,4.0,18.0,35,0.00,,,0.00,Wunderground v.1.15,2013-02-24 01:44:00,
2013-02-23 17:50:00,55.1,28.6,30.10,WNW,285,3.0,18.0,36,0.00,,,0.00,Wunderground v.1.15,2013-02-24 01:50:00,
2013-02-23 17:55:00,54.7,28.2,30.10,North,349,3.0,18.0,36,0.00,,,0.00,Wunderground v.1.15,2013-02-24 01:55:00,
2013-02-23 18:01:00,54.3,28.6,30.10,NNW,338,3.0,18.0,37,0.00,,,0.00,Wunderground v.1.15,2013-02-24 02:01:00,
2013-02-23 18:06:00,53.9,28.8,30.10,NW,305,4.0,18.0,38,0.00,,,0.00,Wunderground v.1.15,2013-02-24 02:06:00,
2013-02-23 18:12:00,53.6,29.2,30.10,NNW,335,4.0,4.0,39,0.00,,,0.00,Wunderground v.1.15,2013-02-24 02:12:00,
2013-02-23 18:18:00,53.2,28.9,30.11,West,267,4.0,6.0,39,0.00,,,0.00,Wunderground v.1.15,2013-02-24 02:18:00,
2013-02-23 18:23:00,52.9,28.6,30.11,NW,325,3.0,5.0,39,0.00,,,0.00,Wunderground v.1.15,2013-02-24 02:23:00,
2013-02-23 18:29:00,52.6,28.9,30.11,NW,305,3.0,5.0,40,0.00,,,0.00,Wunderground v.1.15,2013-02-24 02:29:00,
2013-02-23 18:35:00,52.4,29.4,30.12,NW,319,3.0,5.0,41,0.00,,,0.00,Wunderground v.1.15,2013-02-24 02:35:00,
2013-02-23 18:40:00,52.2,29.8,30.11,NE,53,2.0,3.0,42,0.00,,,0.00,Wunderground v.1.15,2013-02-24 02:40:00,
2013-02-23 18:45:00,51.7,29.9,30.12,NW,315,2.0,3.0,43,0.00,,,0.00,Wunderground v.1.15,2013-02-24 02:45:00,
2013-02-23 18:50:00,51.2,30.6,30.12,West,260,2.0,4.0,45,0.00,,,0.00,Wunderground v.1.15,2013-02-24 02:50:00,
2013-02-23 18:55:00,50.7,30.7,30.12,WNW,288,1.0,4.0,46,0.00,,,0.00,Wunderground v.1.15,2013-02-24 02:55:00,
2013-02-23 19:01:00,50.1,30.6,30.12,WNW,288,1.0,17.0,47,0.00,,,0.00,Wunderground v.1.15,2013-02-24 03:01:00,
2013-02-23 19:06:00,49.4,30.5,30.12,WNW,298,1.0,17.0,48,0.00,,,0.00,Wunderground v.1.15,2013-02-24 03:06:00,
2013-02-23 19:12:00,49.0,30.7,30.12,NW,308,1.0,17.0,49,0.00,,,0.00,Wunderground v.1.15,2013-02-24 03:12:00,
2013-02-23 19:17:00,48.7,30.9,30.12,WNW,302,1.0,17.0,50,0.00,,,0.00,Wunderground v.1.15,2013-02-24 03:17:00,
2013-02-23 19:22:00,48.4,31.1,30.12,West,270,0.0,17.0,51,0.00,,,0.00,Wunderground v.1.15,2013-02-24 03:22:00,
2013-02-23 19:28:00,47.9,31.1,30.12,WNW,301,1.0,17.0,52,0.00,,,0.00,Wunderground v.1.15,2013-02-24 03:28:00,
2013-02-23 19:33:00,47.6,31.3,30.11,West,264,1.0,17.0,53,0.00,,,0.00,Wunderground v.1.15,2013-02-24 03:33:00,
2013-02-23 19:38:00,47.5,31.2,30.12,WNW,284,1.0,17.0,53,0.00,,,0.00,Wunderground v.1.15,2013-02-24 03:38:00,
2013-02-23 19:43:00,47.4,31.1,30.11,WNW,301,1.0,17.0,53,0.00,,,0.00,Wunderground v.1.15,2013-02-24 03:43:00,
2013-02-23 19:49:00,47.4,31.1,30.11,West,270,1.0,17.0,53,0.00,,,0.00,Wunderground v.1.15,2013-02-24 03:49:00,
2013-02-23 19:54:00,47.3,30.5,30.11,NW,324,1.0,17.0,52,0.00,,,0.00,Wunderground v.1.15,2013-02-24 03:54:00,
2013-02-23 19:59:00,47.4,30.2,30.12,NW,308,1.0,17.0,51,0.00,,,0.00,Wunderground v.1.15,2013-02-24 03:59:00,
2013-02-23 20:05:00,47.6,29.9,30.11,WNW,298,1.0,17.0,50,0.00,,,0.00,Wunderground v.1.15,2013-02-24 04:05:00,
2013-02-23 20:10:00,47.7,30.0,30.11,NW,309,1.0,1.0,50,0.00,,,0.00,Wunderground v.1.15,2013-02-24 04:10:00,
2013-02-23 20:15:00,47.7,30.0,30.12,WNW,288,1.0,1.0,50,0.00,,,0.00,Wunderground v.1.15,2013-02-24 04:15:00,
2013-02-23 20:21:00,47.5,30.3,30.11,West,267,1.0,1.0,51,0.00,,,0.00,Wunderground v.1.15,2013-02-24 04:21:00,
2013-02-23 20:26:00,47.3,30.1,30.12,WSW,257,1.0,1.0,51,0.00,,,0.00,Wunderground v.1.15,2013-02-24 04:26:00,
2013-02-23 20:32:00,47.0,30.3,30.11,WNW,292,1.0,1.0,52,0.00,,,0.00,Wunderground v.1.15,2013-02-24 04:32:00,
2013-02-23 20:37:00,46.8,30.1,30.12,WNW,294,1.0,2.0,52,0.00,,,0.00,Wunderground v.1.15,2013-02-24 04:37:00,
2013-02-23 20:42:00,46.5,30.3,30.12,West,273,1.0,3.0,53,0.00,,,0.00,Wunderground v.1.15,2013-02-24 04:42:00,
2013-02-23 20:48:00,46.4,30.2,30.12,WNW,285,1.0,3.0,53,0.00,,,0.00,Wunderground v.1.15,2013-02-24 04:48:00,
2013-02-23 20:53:00,46.3,30.1,30.11,West,270,2.0,4.0,53,0.00,,,0.00,Wunderground v.1.15,2013-02-24 04:53:00,
2013-02-23 20:58:00,46.2,30.0,30.11,WNW,302,2.0,4.0,53,0.00,,,0.00,Wunderground v.1.15,2013-02-24 04:58:00,
2013-02-23 21:00:00,46.2,30.0,30.12,WSW,249,2.0,10.0,53,0.00,,,0.00,Wunderground v.1.15,2013-02-24 05:00:00,
2013-02-23 21:01:00,46.2,30.0,30.11,West,263,2.0,10.0,53,0.00,,,0.00,Wunderground v.1.15,2013-02-24 05:01:00,
2013-02-23 21:04:00,46.1,29.9,30.11,West,274,2.0,10.0,53,0.00,,,0.00,Wunderground v.1.15,2013-02-24 05:04:00,
2013-02-23 21:10:00,45.8,30.1,30.12,WNW,302,1.0,10.0,54,0.00,,,0.00,Wunderground v.1.15,2013-02-24 05:10:00,
2013-02-23 21:16:00,45.6,30.3,30.12,West,274,2.0,10.0,55,0.00,,,0.00,Wunderground v.1.15,2013-02-24 05:16:00,
2013-02-23 21:21:00,45.3,31.0,30.12,NNW,341,2.0,10.0,57,0.00,,,0.00,Wunderground v.1.15,2013-02-24 05:21:00,
2013-02-23 21:26:00,44.9,31.4,30.12,WNW,290,2.0,10.0,59,0.00,,,0.00,Wunderground v.1.15,2013-02-24 05:26:00,
2013-02-23 21:31:00,44.7,31.2,30.12,NW,324,1.0,10.0,59,0.00,,,0.00,Wunderground v.1.15,2013-02-24 05:31:00,
2013-02-23 21:37:00,44.8,30.9,30.12,WNW,285,1.0,10.0,58,0.00,,,0.00,Wunderground v.1.15,2013-02-24 05:37:00,
2013-02-23 21:42:00,44.7,30.8,30.13,WNW,290,1.0,10.0,58,0.00,,,0.00,Wunderground v.1.15,2013-02-24 05:42:00,
2013-02-23 21:47:00,44.6,30.7,30.13,WSW,248,1.0,10.0,58,0.00,,,0.00,Wunderground v.1.15,2013-02-24 05:47:00,
2013-02-23 21:52:00,44.4,30.5,30.13,SW,230,2.0,10.0,58,0.00,,,0.00,Wunderground v.1.15,2013-02-24 05:52:00,
2013-02-23 21:58:00,44.3,30.4,30.13,WSW,255,2.0,10.0,58,0.00,,,0.00,Wunderground v.1.15,2013-02-24 05:58:00,